Time,TemperatureF,DewpointF,PressureIn,WindDirection,WindDirectionDegrees,WindSpeedMPH,WindSpeedGustMPH,Humidity,HourlyPrecipIn,Conditions,Clouds,dailyrainin,SoftwareType,DateUTC
2013-03-05 00:00:00,35.8,28.0,30.04,NNW,338,0.0,0.0,73,0.00,FEW,,0.00,WeatherDisplay:10.37,2013-03-05 05:00:00,
2013-03-05 00:05:00,35.8,28.0,30.05,NNW,338,0.0,0.0,73,0.00,CLR,,0.00,WeatherDisplay:10.37,2013-03-05 05:05:00,
2013-03-05 00:10:00,35.8,28.0,30.05,NNW,338,0.0,0.0,73,0.00,CLR,,0.00,WeatherDisplay:10.37,2013-03-05 05:10:00,
2013-03-05 00:15:00,35.8,28.0,30.05,NNW,338,0.0,0.0,73,0.00,CLR,,0.00,WeatherDisplay:10.37,2013-03-05 05:15:00,
2013-03-05 00:20:00,36.0,28.1,30.05,NNW,338,0.0,0.0,73,0.00,CLR,,0.00,WeatherDisplay:10.37,2013-03-05 05:20:00,
2013-03-05 00:25:00,35.8,28.0,30.05,NNW,338,0.0,0.0,73,0.00,CLR,,0.00,WeatherDisplay:10.37,2013-03-05 05:25:00,
2013-03-05 00:30:00,35.8,28.3,30.04,NNW,338,0.0,0.0,74,0.00,CLR,,0.00,WeatherDisplay:10.37,2013-03-05 05:30:00,
2013-03-05 00:35:00,35.8,28.3,30.04,NNW,338,0.0,0.0,74,0.00,CLR,,0.00,WeatherDisplay:10.37,2013-03-05 05:35:00,
2013-03-05 00:41:00,35.4,28.0,30.05,NNW,338,0.0,0.0,74,0.00,CLR,,0.00,WeatherDisplay:10.37,2013-03-05 05:41:00,
2013-03-05 00:46:00,35.4,28.0,30.04,NNW,338,0.0,0.0,74,0.00,CLR,,0.00,WeatherDisplay:10.37,2013-03-05 05:46:00,
2013-03-05 00:51:00,35.2,27.8,30.04,NNW,338,2.3,2.3,74,0.00,CLR,,0.00,WeatherDisplay:10.37,2013-03-05 05:51:00,
2013-03-05 00:56:00,35.2,27.8,30.04,NNW,338,0.0,0.0,74,0.00,CLR,,0.00,WeatherDisplay:10.37,2013-03-05 05:56:00,
2013-03-05 01:01:00,34.9,27.4,30.05,NNW,338,0.0,0.0,74,0.00,CLR,,0.00,WeatherDisplay:10.37,2013-03-05 06:01:00,
2013-03-05 01:06:00,34.9,27.4,30.05,NNW,338,0.0,0.0,74,0.00,CLR,,0.00,WeatherDisplay:10.37,2013-03-05 06:06:00,
2013-03-05 01:11:00,34.5,27.1,30.05,NNW,338,0.0,0.0,74,0.00,CLR,,0.00,WeatherDisplay:10.37,2013-03-05 06:11:00,
2013-03-05 01:16:00,34.3,27.2,30.05,NW,315,0.0,0.0,75,0.00,CLR,,0.00,WeatherDisplay:10.37,2013-03-05 06:16:00,
2013-03-05 01:21:00,34.3,27.2,30.05,NW,315,0.0,0.0,75,0.00,CLR,,0.00,WeatherDisplay:10.37,2013-03-05 06:21:00,
2013-03-05 01:26:00,34.3,27.2,30.05,NNW,338,0.0,0.0,75,0.00,CLR,,0.00,WeatherDisplay:10.37,2013-03-05 06:26:00,
2013-03-05 01:31:00,34.3,27.2,30.05,NNW,338,0.0,0.0,75,0.00,CLR,,0.00,WeatherDisplay:10.37,2013-03-05 06:31:00,
2013-03-05 01:36:00,34.2,27.4,30.05,NW,315,0.0,0.0,76,0.00,CLR,,0.00,WeatherDisplay:10.37,2013-03-05 06:36:00,
2013-03-05 01:41:00,34.0,27.2,30.05,NW,315,0.0,0.0,76,0.00,CLR,,0.00,WeatherDisplay:10.37,2013-03-05 06:41:00,
2013-03-05 01:46:00,34.0,27.2,30.05,NW,315,0.0,0.0,76,0.00,CLR,,0.00,WeatherDisplay:10.37,2013-03-05 06:46:00,
2013-03-05 01:51:00,33.8,27.0,30.05,North,0,0.0,0.0,76,0.00,CLR,,0.00,WeatherDisplay:10.37,2013-03-05 06:51:00,
2013-03-05 01:57:00,33.6,26.9,30.05,North,0,0.0,0.0,76,0.00,CLR,,0.00,WeatherDisplay:10.37,2013-03-05 06:57:00,
2013-03-05 02:02:00,33.6,26.9,30.05,NE,45,0.0,0.0,76,0.00,CLR,,0.00,WeatherDisplay:10.37,2013-03-05 07:02:00,
2013-03-05 02:07:00,33.6,26.9,30.04,NE,45,0.0,0.0,76,0.00,CLR,,0.00,WeatherDisplay:10.37,2013-03-05 07:07:00,
2013-03-05 02:12:00,33.6,27.2,30.04,NE,45,0.0,0.0,77,0.00,CLR,,0.00,WeatherDisplay:10.37,2013-03-05 07:12:00,
2013-03-05 02:17:00,33.6,27.2,30.04,NNE,22,0.0,0.0,77,0.00,CLR,,0.00,WeatherDisplay:10.37,2013-03-05 07:17:00,
2013-03-05 02:22:00,33.6,27.2,30.03,NNE,22,0.0,0.0,77,0.00,CLR,,0.00,WeatherDisplay:10.37,2013-03-05 07:22:00,
2013-03-05 02:27:00,33.6,27.2,30.03,NNE,22,0.0,0.0,77,0.00,CLR,,0.00,WeatherDisplay:10.37,2013-03-05 07:27:00,
2013-03-05 02:32:00,33.6,27.5,30.03,NNE,22,0.0,0.0,78,0.00,CLR,,0.00,WeatherDisplay:10.37,2013-03-05 07:32:00,
2013-03-05 02:37:00,33.6,27.5,30.03,NNE,22,0.0,0.0,78,0.00,CLR,,0.00,WeatherDisplay:10.37,2013-03-05 07:37:00,
2013-03-05 02:42:00,33.6,27.5,30.03,NNE,22,0.0,0.0,78,0.00,CLR,,0.00,WeatherDisplay:10.37,2013-03-05 07:42:00,
2013-03-05 02:47:00,33.8,27.7,30.03,NNE,22,0.0,0.0,78,0.00,CLR,,0.00,WeatherDisplay:10.37,2013-03-05 07:47:00,
2013-03-05 02:52:00,33.8,27.7,30.03,NNE,22,0.0,0.0,78,0.00,CLR,,0.00,WeatherDisplay:10.37,2013-03-05 07:52:00,
2013-03-05 02:57:00,33.8,27.7,30.03,NW,315,0.0,0.0,78,0.00,CLR,,0.00,WeatherDisplay:10.37,2013-03-05 07:57:00,
2013-03-05 03:02:00,33.6,27.5,30.03,NW,315,0.0,0.0,78,0.00,CLR,,0.00,WeatherDisplay:10.37,2013-03-05 08:02:00,
2013-03-05 03:07:00,33.6,27.5,30.02,NW,315,0.0,0.0,78,0.00,CLR,,0.00,WeatherDisplay:10.37,2013-03-05 08:07:00,
2013-03-05 03:13:00,33.6,27.5,30.02,North,0,0.0,0.0,78,0.00,CLR,,0.00,WeatherDisplay:10.37,2013-03-05 08:13:00,
2013-03-05 03:18:00,33.6,27.5,30.01,NE,45,0.0,0.0,78,0.00,CLR,,0.00,WeatherDisplay:10.37,2013-03-05 08:18:00,
2013-03-05 03:23:00,33.4,27.3,30.01,NE,45,0.0,0.0,78,0.00,CLR,,0.00,WeatherDisplay:10.37,2013-03-05 08:23:00,
2013-03-05 03:28:00,33.4,27.3,30.01,NE,45,0.0,0.0,78,0.00,CLR,,0.00,WeatherDisplay:10.37,2013-03-05 08:28:00,
2013-03-05 03:33:00,33.4,27.3,30.01,NE,45,0.0,0.0,78,0.00,CLR,,0.00,WeatherDisplay:10.37,2013-03-05 08:33:00,
2013-03-05 03:38:00,33.4,27.6,30.01,NE,45,0.0,0.0,79,0.00,CLR,,0.00,WeatherDisplay:10.37,2013-03-05 08:38:00,
2013-03-05 03:43:00,33.6,27.8,30.01,NE,45,0.0,0.0,79,0.00,CLR,,0.00,WeatherDisplay:10.37,2013-03-05 08:43:00,
2013-03-05 03:48:00,33.6,27.8,30.01,NE,45,0.0,0.0,79,0.00,CLR,,0.00,WeatherDisplay:10.37,2013-03-05 08:48:00,
2013-03-05 03:53:00,33.4,27.6,30.01,NNE,22,0.0,0.0,79,0.00,CLR,,0.00,WeatherDisplay:10.37,2013-03-05 08:53:00,
2013-03-05 03:58:00,33.6,27.8,30.01,NNE,22,0.0,0.0,79,0.00,CLR,,0.00,WeatherDisplay:10.37,2013-03-05 08:58:00,
2013-03-05 04:03:00,33.6,27.8,30.00,NNE,22,0.0,0.0,79,0.00,CLR,,0.00,WeatherDisplay:10.37,2013-03-05 09:03:00,
2013-03-05 04:08:00,33.6,27.8,30.00,NNE,22,0.0,0.0,79,0.00,CLR,,0.00,WeatherDisplay:10.37,2013-03-05 09:08:00,
2013-03-05 04:13:00,33.6,27.8,30.00,NNE,22,0.0,0.0,79,0.00,CLR,,0.00,WeatherDisplay:10.37,2013-03-05 09:13:00,
2013-03-05 04:18:00,33.8,28.0,30.00,NNE,22,0.0,0.0,79,0.00,CLR,,0.00,WeatherDisplay:10.37,2013-03-05 09:18:00,
2013-03-05 04:23:00,34.0,28.2,29.99,NNE,22,0.0,0.0,79,0.00,CLR,,0.00,WeatherDisplay:10.37,2013-03-05 09:23:00,
2013-03-05 04:29:00,34.0,28.2,29.99,NNE,22,0.0,0.0,79,0.00,CLR,,0.00,WeatherDisplay:10.37,2013-03-05 09:29:00,
2013-03-05 04:34:00,34.3,28.5,30.00,NNE,22,0.0,0.0,79,0.00,CLR,,0.00,WeatherDisplay:10.37,2013-03-05 09:34:00,
2013-03-05 04:39:00,34.3,28.8,29.99,NNE,22,0.0,0.0,80,0.00,CLR,,0.00,WeatherDisplay:10.37,2013-03-05 09:39:00,
2013-03-05 04:44:00,34.3,28.8,29.99,NNE,22,0.0,0.0,80,0.00,CLR,,0.00,WeatherDisplay:10.37,2013-03-05 09:44:00,
2013-03-05 04:49:00,34.5,29.0,29.99,NNE,22,0.0,0.0,80,0.00,CLR,,0.00,WeatherDisplay:10.37,2013-03-05 09:49:00,
2013-03-05 04:54:00,34.7,29.2,29.99,NE,45,0.0,0.0,80,0.00,CLR,,0.00,WeatherDisplay:10.37,2013-03-05 09:54:00,
2013-03-05 04:59:00,34.9,29.3,29.99,NE,45,0.0,0.0,80,0.00,CLR,,0.00,WeatherDisplay:10.37,2013-03-05 09:59:00,
2013-03-05 05:04:00,34.9,29.3,29.99,North,0,3.5,3.5,80,0.00,CLR,,0.00,WeatherDisplay:10.37,2013-03-05 10:04:00,
2013-03-05 05:09:00,35.1,29.5,29.99,NE,45,2.5,2.5,80,0.00,CLR,,0.00,WeatherDisplay:10.37,2013-03-05 10:09:00,
2013-03-05 05:14:00,35.2,29.4,29.98,North,0,3.5,3.5,79,0.00,CLR,,0.00,WeatherDisplay:10.37,2013-03-05 10:14:00,
2013-03-05 05:19:00,35.2,29.4,29.98,North,0,0.0,0.0,79,0.00,CLR,,0.00,WeatherDisplay:10.37,2013-03-05 10:19:00,
2013-03-05 05:24:00,35.4,29.6,29.98,North,0,0.0,0.0,79,0.00,CLR,,0.00,WeatherDisplay:10.37,2013-03-05 10:24:00,
2013-03-05 05:29:00,35.4,29.6,29.98,North,0,0.0,0.0,79,0.00,CLR,,0.00,WeatherDisplay:10.37,2013-03-05 10:29:00,
2013-03-05 05:34:00,35.4,29.6,29.99,North,0,0.0,0.0,79,0.00,CLR,,0.00,WeatherDisplay:10.37,2013-03-05 10:34:00,
2013-03-05 05:39:00,35.4,29.6,29.98,North,0,0.0,0.0,79,0.00,CLR,,0.00,WeatherDisplay:10.37,2013-03-05 10:39:00,
2013-03-05 05:45:00,35.4,29.6,29.98,North,0,0.0,0.0,79,0.00,CLR,,0.00,WeatherDisplay:10.37,2013-03-05 10:45:00,
2013-03-05 05:50:00,35.4,29.6,29.98,North,0,0.0,0.0,79,0.00,CLR,,0.00,WeatherDisplay:10.37,2013-03-05 10:50:00,
2013-03-05 05:55:00,35.4,29.6,29.98,North,0,0.0,0.0,79,0.00,CLR,,0.00,WeatherDisplay:10.37,2013-03-05 10:55:00,
2013-03-05 06:00:00,35.6,29.7,29.98,NNE,22,3.5,0.0,79,0.00,CLR,,0.00,WeatherDisplay:10.37,2013-03-05 11:00:00,
2013-03-05 06:05:00,35.6,29.7,29.98,NE,45,0.0,0.0,79,0.00,FEW,,0.00,WeatherDisplay:10.37,2013-03-05 11:05:00,
2013-03-05 06:10:00,35.8,29.9,29.98,NE,45,0.0,0.0,79,0.00,FEW,,0.00,WeatherDisplay:10.37,2013-03-05 11:10:00,
2013-03-05 06:15:00,35.8,30.2,29.98,NE,45,0.0,0.0,80,0.00,FEW,,0.00,WeatherDisplay:10.37,2013-03-05 11:15:00,
2013-03-05 06:20:00,35.8,30.2,29.98,NE,45,0.0,0.0,80,0.00,FEW,,0.00,WeatherDisplay:10.37,2013-03-05 11:20:00,
2013-03-05 06:25:00,35.8,30.2,29.98,NE,45,0.0,0.0,80,0.00,FEW,,0.00,WeatherDisplay:10.37,2013-03-05 11:25:00,
2013-03-05 06:30:00,36.0,30.4,29.98,NE,45,0.0,0.0,80,0.00,FEW,,0.00,WeatherDisplay:10.37,2013-03-05 11:30:00,
2013-03-05 06:35:00,36.0,30.4,29.98,NE,45,0.0,0.0,80,0.00,FEW,,0.00,WeatherDisplay:10.37,2013-03-05 11:35:00,
2013-03-05 06:40:00,36.1,30.6,29.98,NE,45,0.0,0.0,80,0.00,FEW,,0.00,WeatherDisplay:10.37,2013-03-05 11:40:00,
2013-03-05 06:45:00,36.3,30.7,29.98,NE,45,0.0,0.0,80,0.00,FEW,,0.00,WeatherDisplay:10.37,2013-03-05 11:45:00,
2013-03-05 06:50:00,36.3,30.7,29.98,NE,45,0.0,0.0,80,0.00,FEW,,0.00,WeatherDisplay:10.37,2013-03-05 11:50:00,
2013-03-05 06:55:00,36.3,30.7,29.98,NE,45,0.0,0.0,80,0.00,FEW,,0.00,WeatherDisplay:10.37,2013-03-05 11:55:00,
2013-03-05 07:01:00,36.3,30.7,29.98,NE,45,0.0,0.0,80,0.00,FEW,,0.00,WeatherDisplay:10.37,2013-03-05 12:01:00,
2013-03-05 07:06:00,36.3,30.7,29.98,NE,45,0.0,0.0,80,0.00,FEW,,0.00,WeatherDisplay:10.37,2013-03-05 12:06:00,
2013-03-05 07:11:00,36.5,30.9,29.97,NE,45,0.0,0.0,80,0.00,FEW,,0.00,WeatherDisplay:10.37,2013-03-05 12:11:00,
2013-03-05 07:16:00,36.5,30.9,29.97,NE,45,0.0,0.0,80,0.00,FEW,,0.00,WeatherDisplay:10.37,2013-03-05 12:16:00,
2013-03-05 07:21:00,36.7,31.1,29.96,NE,45,0.0,0.0,80,0.00,FEW,,0.00,WeatherDisplay:10.37,2013-03-05 12:21:00,
2013-03-05 07:26:00,36.7,31.1,29.96,NNE,22,0.0,0.0,80,0.00,FEW,,0.00,WeatherDisplay:10.37,2013-03-05 12:26:00,
2013-03-05 07:31:00,37.0,31.4,29.96,NNE,22,0.0,0.0,80,0.00,FEW,,0.00,WeatherDisplay:10.37,2013-03-05 12:31:00,
2013-03-05 07:36:00,37.0,31.4,29.96,NNE,22,0.0,0.0,80,0.00,FEW,,0.00,WeatherDisplay:10.37,2013-03-05 12:36:00,
2013-03-05 07:41:00,37.2,31.6,29.96,North,0,2.3,0.0,80,0.00,FEW,,0.00,WeatherDisplay:10.37,2013-03-05 12:41:00,
2013-03-05 07:46:00,37.2,31.9,29.97,North,0,0.0,0.0,81,0.00,FEW,,0.00,WeatherDisplay:10.37,2013-03-05 12:46:00,
2013-03-05 07:51:00,37.4,32.1,29.97,North,0,0.0,0.0,81,0.00,FEW,,0.00,WeatherDisplay:10.37,2013-03-05 12:51:00,
2013-03-05 07:56:00,37.6,32.3,29.97,North,0,0.0,0.0,81,0.00,FEW,,0.00,WeatherDisplay:10.37,2013-03-05 12:56:00,
2013-03-05 08:01:00,37.9,32.6,29.96,North,0,0.0,0.0,81,0.00,OVC,,0.00,WeatherDisplay:10.37,2013-03-05 13:01:00,
2013-03-05 08:06:00,38.1,32.8,29.96,WNW,292,0.0,0.0,81,0.00,OVC,,0.00,WeatherDisplay:10.37,2013-03-05 13:06:00,
2013-03-05 08:11:00,38.5,33.5,29.96,WNW,292,0.0,0.0,82,0.00,OVC,,0.00,WeatherDisplay:10.37,2013-03-05 13:11:00,
2013-03-05 08:17:00,38.5,33.5,29.97,North,0,0.0,0.0,82,0.00,OVC,,0.00,WeatherDisplay:10.37,2013-03-05 13:17:00,
2013-03-05 08:22:00,39.0,34.0,29.96,NNE,22,0.0,0.0,82,0.00,OVC,,0.00,WeatherDisplay:10.37,2013-03-05 13:22:00,
2013-03-05 08:27:00,39.4,34.0,29.96,NNE,22,0.0,0.0,81,0.00,OVC,,0.00,WeatherDisplay:10.37,2013-03-05 13:27:00,
2013-03-05 08:32:00,39.6,34.5,29.97,NE,45,0.0,0.0,82,0.00,OVC,,0.00,WeatherDisplay:10.37,2013-03-05 13:32:00,
2013-03-05 08:37:00,39.7,34.7,29.96,NE,45,0.0,0.0,82,0.00,OVC,,0.00,WeatherDisplay:10.37,2013-03-05 13:37:00,
2013-03-05 08:42:00,39.7,34.7,29.96,NE,45,0.0,0.0,82,0.00,OVC,,0.00,WeatherDisplay:10.37,2013-03-05 13:42:00,
2013-03-05 08:47:00,39.9,34.9,29.96,NE,45,0.0,0.0,82,0.00,OVC,,0.00,WeatherDisplay:10.37,2013-03-05 13:47:00,
2013-03-05 08:52:00,39.9,34.9,29.96,NE,45,0.0,0.0,82,0.00,OVC,,0.00,WeatherDisplay:10.37,2013-03-05 13:52:00,
2013-03-05 08:57:00,39.9,34.9,29.96,NE,45,0.0,0.0,82,0.00,OVC,,0.00,WeatherDisplay:10.37,2013-03-05 13:57:00,
2013-03-05 09:02:00,39.9,35.2,29.96,NE,45,0.0,0.0,83,0.00,OVC,,0.00,WeatherDisplay:10.37,2013-03-05 14:02:00,
2013-03-05 09:07:00,40.1,35.4,29.96,NE,45,0.0,0.0,83,0.00,OVC,,0.00,WeatherDisplay:10.37,2013-03-05 14:07:00,
2013-03-05 09:12:00,40.3,35.5,29.96,ENE,68,0.0,0.0,83,0.00,OVC,,0.00,WeatherDisplay:10.37,2013-03-05 14:12:00,
2013-03-05 09:17:00,40.6,36.2,29.96,East,90,0.0,0.0,84,0.00,OVC,,0.00,WeatherDisplay:10.37,2013-03-05 14:17:00,
2013-03-05 09:22:00,41.0,36.8,29.95,WNW,292,0.0,0.0,85,0.00,OVC,,0.00,WeatherDisplay:10.37,2013-03-05 14:22:00,
2013-03-05 09:27:00,41.5,37.7,29.95,WNW,292,0.0,0.0,86,0.00,OVC,,0.00,WeatherDisplay:10.37,2013-03-05 14:27:00,
2013-03-05 09:33:00,42.1,38.2,29.95,WNW,292,0.0,0.0,86,0.00,OVC,,0.00,WeatherDisplay:10.37,2013-03-05 14:33:00,
2013-03-05 09:38:00,42.4,38.5,29.95,NNE,22,0.0,0.0,86,0.00,OVC,,0.00,WeatherDisplay:10.37,2013-03-05 14:38:00,
2013-03-05 09:43:00,43.0,39.4,29.94,NE,45,2.3,2.3,87,0.00,OVC,,0.00,WeatherDisplay:10.37,2013-03-05 14:43:00,
2013-03-05 09:48:00,43.3,39.7,29.94,NE,45,0.0,0.0,87,0.00,OVC,,0.00,WeatherDisplay:10.37,2013-03-05 14:48:00,
2013-03-05 09:53:00,43.7,40.1,29.95,NE,45,0.0,0.0,87,0.00,OVC,,0.00,WeatherDisplay:10.37,2013-03-05 14:53:00,
2013-03-05 09:58:00,44.2,40.6,29.94,NE,45,0.0,0.0,87,0.00,OVC,,0.00,WeatherDisplay:10.37,2013-03-05 14:58:00,
2013-03-05 10:03:00,44.6,41.0,29.94,ENE,68,3.5,3.5,87,0.00,OVC,,0.00,WeatherDisplay:10.37,2013-03-05 15:03:00,
2013-03-05 10:08:00,45.1,41.8,29.94,NW,315,0.0,0.0,88,0.00,OVC,,0.00,WeatherDisplay:10.37,2013-03-05 15:08:00,
2013-03-05 10:13:00,45.7,42.3,29.93,WSW,248,4.6,4.6,88,0.00,OVC,,0.00,WeatherDisplay:10.37,2013-03-05 15:13:00,
2013-03-05 10:18:00,46.0,42.4,29.94,SSE,158,2.3,2.3,87,0.00,OVC,,0.00,WeatherDisplay:10.37,2013-03-05 15:18:00,
2013-03-05 10:23:00,46.2,42.3,29.93,ESE,112,0.0,0.0,86,0.00,OVC,,0.00,WeatherDisplay:10.37,2013-03-05 15:23:00,
2013-03-05 10:28:00,46.2,42.3,29.94,SSE,158,0.0,0.0,86,0.00,OVC,,0.00,WeatherDisplay:10.37,2013-03-05 15:28:00,
2013-03-05 10:33:00,46.0,41.8,29.93,SSE,158,0.0,0.0,85,0.00,OVC,,0.00,WeatherDisplay:10.37,2013-03-05 15:33:00,
2013-03-05 10:38:00,46.0,41.8,29.93,ENE,68,0.0,0.0,85,0.00,OVC,,0.00,WeatherDisplay:10.37,2013-03-05 15:38:00,
2013-03-05 10:43:00,46.0,42.1,29.93,South,180,2.0,2.0,86,0.00,OVC,,0.00,WeatherDisplay:10.37,2013-03-05 15:43:00,
2013-03-05 10:49:00,46.2,42.3,29.93,SW,225,4.6,4.6,86,0.00,OVC,,0.00,WeatherDisplay:10.37,2013-03-05 15:49:00,
2013-03-05 10:54:00,46.6,42.9,29.93,SW,225,3.5,3.5,87,0.00,OVC,,0.00,WeatherDisplay:10.37,2013-03-05 15:54:00,
2013-03-05 10:59:00,46.6,42.6,29.93,SSE,158,3.5,3.5,86,0.00,OVC,,0.00,WeatherDisplay:10.37,2013-03-05 15:59:00,
2013-03-05 11:04:00,46.8,42.8,29.93,SSE,158,0.0,0.0,86,0.00,BKN,,0.00,WeatherDisplay:10.37,2013-03-05 16:04:00,
2013-03-05 11:09:00,46.9,43.0,29.92,SSE,158,0.0,0.0,86,0.00,BKN,,0.00,WeatherDisplay:10.37,2013-03-05 16:09:00,
2013-03-05 11:14:00,46.8,42.8,29.93,NE,45,0.0,0.0,86,0.00,BKN,,0.00,WeatherDisplay:10.37,2013-03-05 16:14:00,
2013-03-05 11:19:00,46.8,42.5,29.93,NE,45,2.9,2.9,85,0.00,BKN,,0.00,WeatherDisplay:10.37,2013-03-05 16:19:00,
2013-03-05 11:24:00,46.6,42.0,29.92,NE,45,1.2,1.2,84,0.00,BKN,,0.00,WeatherDisplay:10.37,2013-03-05 16:24:00,
2013-03-05 11:29:00,46.6,42.0,29.92,NE,45,4.6,4.6,84,0.00,BKN,,0.00,WeatherDisplay:10.37,2013-03-05 16:29:00,
2013-03-05 11:34:00,46.2,41.3,29.93,NE,45,3.5,3.5,83,0.00,BKN,,0.00,WeatherDisplay:10.37,2013-03-05 16:34:00,
2013-03-05 11:39:00,46.2,41.3,29.92,NE,45,3.5,3.5,83,0.00,BKN,,0.00,WeatherDisplay:10.37,2013-03-05 16:39:00,
2013-03-05 11:44:00,46.0,41.2,29.91,NNE,22,3.4,3.4,83,0.00,BKN,,0.00,WeatherDisplay:10.37,2013-03-05 16:44:00,
2013-03-05 11:49:00,45.7,40.8,29.91,NE,45,4.6,4.6,83,0.00,BKN,,0.00,WeatherDisplay:10.37,2013-03-05 16:49:00,
2013-03-05 11:54:00,45.7,40.8,29.91,NE,45,0.0,0.0,83,0.00,BKN,,0.00,WeatherDisplay:10.37,2013-03-05 16:54:00,
2013-03-05 11:59:00,45.7,40.8,29.90,NE,45,3.5,3.5,83,0.00,BKN,,0.00,WeatherDisplay:10.37,2013-03-05 16:59:00,
2013-03-05 12:05:00,45.7,40.8,29.90,NE,45,0.0,0.0,83,0.00,OVC,,0.00,WeatherDisplay:10.37,2013-03-05 17:05:00,
2013-03-05 12:10:00,45.7,40.8,29.89,NE,45,0.0,1.2,83,0.00,OVC,,0.00,WeatherDisplay:10.37,2013-03-05 17:10:00,
2013-03-05 12:15:00,45.7,41.1,29.89,NE,45,2.3,2.3,84,0.00,OVC,,0.00,WeatherDisplay:10.37,2013-03-05 17:15:00,
2013-03-05 12:20:00,46.0,41.5,29.89,NE,45,0.0,0.0,84,0.00,OVC,,0.00,WeatherDisplay:10.37,2013-03-05 17:20:00,
2013-03-05 12:25:00,46.0,41.5,29.89,NE,45,3.5,3.5,84,0.00,OVC,,0.00,WeatherDisplay:10.37,2013-03-05 17:25:00,
2013-03-05 12:30:00,46.2,41.7,29.89,NE,45,0.0,0.9,84,0.00,OVC,,0.00,WeatherDisplay:10.37,2013-03-05 17:30:00,
2013-03-05 12:35:00,46.4,41.8,29.89,ENE,68,1.2,1.2,84,0.00,OVC,,0.00,WeatherDisplay:10.37,2013-03-05 17:35:00,
2013-03-05 12:40:00,46.6,42.3,29.88,NE,45,3.6,3.6,85,0.00,OVC,,0.00,WeatherDisplay:10.37,2013-03-05 17:40:00,
2013-03-05 12:45:00,46.8,42.2,29.88,NNE,22,4.6,4.6,84,0.00,OVC,,0.00,WeatherDisplay:10.37,2013-03-05 17:45:00,
2013-03-05 12:50:00,46.8,42.5,29.88,ENE,68,0.0,1.0,85,0.00,OVC,,0.00,WeatherDisplay:10.37,2013-03-05 17:50:00,
2013-03-05 12:55:00,47.1,42.8,29.88,ENE,68,2.3,2.3,85,0.00,OVC,,0.00,WeatherDisplay:10.37,2013-03-05 17:55:00,
2013-03-05 13:00:00,47.1,42.8,29.87,ENE,68,4.5,0.0,85,0.00,OVC,,0.00,WeatherDisplay:10.37,2013-03-05 18:00:00,
2013-03-05 13:05:00,47.5,43.2,29.87,ENE,68,0.0,0.0,85,0.00,OVC,,0.00,WeatherDisplay:10.37,2013-03-05 18:05:00,
2013-03-05 13:10:00,47.7,43.4,29.87,ENE,68,0.0,0.0,85,0.00,OVC,,0.00,WeatherDisplay:10.37,2013-03-05 18:10:00,
2013-03-05 13:15:00,47.7,43.4,29.86,ENE,68,2.3,2.3,85,0.00,OVC,,0.00,WeatherDisplay:10.37,2013-03-05 18:15:00,
2013-03-05 13:21:00,47.8,43.5,29.85,ENE,68,3.5,3.5,85,0.00,OVC,,0.00,WeatherDisplay:10.37,2013-03-05 18:21:00,
2013-03-05 13:26:00,47.8,43.5,29.85,NE,45,3.5,3.5,85,0.00,OVC,,0.00,WeatherDisplay:10.37,2013-03-05 18:26:00,
2013-03-05 13:31:00,47.8,43.2,29.85,NE,45,3.5,3.5,84,0.00,OVC,,0.00,WeatherDisplay:10.37,2013-03-05 18:31:00,
2013-03-05 13:36:00,47.8,43.2,29.85,NE,45,3.5,3.5,84,0.00,OVC,,0.00,WeatherDisplay:10.37,2013-03-05 18:36:00,
2013-03-05 13:41:00,48.0,43.4,29.84,ENE,68,5.8,5.8,84,0.00,OVC,,0.00,WeatherDisplay:10.37,2013-03-05 18:41:00,
2013-03-05 13:46:00,48.0,43.4,29.83,NNE,22,3.5,3.5,84,0.00,OVC,,0.00,WeatherDisplay:10.37,2013-03-05 18:46:00,
2013-03-05 13:51:00,48.0,43.4,29.83,North,0,4.6,4.6,84,0.00,OVC,,0.00,WeatherDisplay:10.37,2013-03-05 18:51:00,
2013-03-05 13:56:00,48.0,43.4,29.83,NE,45,3.5,3.5,84,0.00,OVC,,0.00,WeatherDisplay:10.37,2013-03-05 18:56:00,
2013-03-05 14:01:00,48.2,43.6,29.83,NNE,22,2.3,2.3,84,0.00,OVC,,0.00,WeatherDisplay:10.37,2013-03-05 19:01:00,
2013-03-05 14:06:00,48.2,43.9,29.82,SSW,202,5.8,5.8,85,0.00,OVC,,0.00,WeatherDisplay:10.37,2013-03-05 19:06:00,
2013-03-05 14:11:00,48.4,44.4,29.82,WSW,248,0.0,0.0,86,0.00,OVC,,0.00,WeatherDisplay:10.37,2013-03-05 19:11:00,
2013-03-05 14:16:00,48.7,44.7,29.82,ESE,112,3.5,3.5,86,0.00,OVC,,0.00,WeatherDisplay:10.37,2013-03-05 19:16:00,
2013-03-05 14:21:00,48.9,45.2,29.82,WSW,248,4.6,4.6,87,0.00,OVC,,0.00,WeatherDisplay:10.37,2013-03-05 19:21:00,
2013-03-05 14:26:00,49.3,45.6,29.82,SW,225,0.0,1.9,87,0.00,OVC,,0.00,WeatherDisplay:10.37,2013-03-05 19:26:00,
2013-03-05 14:31:00,49.6,45.9,29.81,WSW,248,6.9,6.9,87,0.00,OVC,,0.00,WeatherDisplay:10.37,2013-03-05 19:31:00,
2013-03-05 14:37:00,49.8,46.4,29.81,SW,225,3.6,3.6,88,0.00,OVC,,0.00,WeatherDisplay:10.37,2013-03-05 19:37:00,
2013-03-05 14:42:00,49.8,46.1,29.81,South,180,0.0,1.4,87,0.00,OVC,,0.00,WeatherDisplay:10.37,2013-03-05 19:42:00,
2013-03-05 14:47:00,49.8,46.1,29.80,WSW,248,5.8,5.8,87,0.00,OVC,,0.00,WeatherDisplay:10.37,2013-03-05 19:47:00,
2013-03-05 14:52:00,50.0,46.3,29.80,WNW,292,4.6,4.6,87,0.00,OVC,,0.00,WeatherDisplay:10.37,2013-03-05 19:52:00,
2013-03-05 14:57:00,50.2,46.5,29.80,SW,225,2.3,2.3,87,0.00,OVC,,0.00,WeatherDisplay:10.37,2013-03-05 19:57:00,
2013-03-05 15:02:00,50.2,46.5,29.79,WSW,248,2.3,2.3,87,0.00,-RA,,0.00,WeatherDisplay:10.37,2013-03-05 20:02:00,
2013-03-05 15:07:00,50.2,46.5,29.79,West,270,0.0,0.0,87,0.00,-RA,,0.00,WeatherDisplay:10.37,2013-03-05 20:07:00,
2013-03-05 15:12:00,50.4,46.6,29.78,West,270,0.0,0.0,87,0.00,-RA,,0.00,WeatherDisplay:10.37,2013-03-05 20:12:00,
2013-03-05 15:17:00,50.4,46.6,29.78,West,270,0.0,0.0,87,0.00,-RA,,0.00,WeatherDisplay:10.37,2013-03-05 20:17:00,
2013-03-05 15:22:00,50.4,46.6,29.78,NNE,22,4.6,4.6,87,0.00,-RA,,0.00,WeatherDisplay:10.37,2013-03-05 20:22:00,
2013-03-05 15:27:00,50.4,46.6,29.76,NNE,22,1.2,1.2,87,0.00,-RA,,0.00,WeatherDisplay:10.37,2013-03-05 20:27:00,
2013-03-05 15:32:00,50.2,46.5,29.76,NNE,22,3.5,3.5,87,0.00,-RA,,0.00,WeatherDisplay:10.37,2013-03-05 20:32:00,
2013-03-05 15:37:00,50.2,46.5,29.76,NNE,22,4.6,4.6,87,0.00,-RA,,0.00,WeatherDisplay:10.37,2013-03-05 20:37:00,
2013-03-05 15:42:00,49.8,46.1,29.76,NNE,22,2.3,0.0,87,0.00,-RA,,0.00,WeatherDisplay:10.37,2013-03-05 20:42:00,
2013-03-05 15:47:00,49.6,45.9,29.76,NNE,22,3.5,3.5,87,0.00,-RA,,0.00,WeatherDisplay:10.37,2013-03-05 20:47:00,
2013-03-05 15:53:00,49.6,45.9,29.76,NNE,22,4.6,4.6,87,0.00,-RA,,0.00,WeatherDisplay:10.37,2013-03-05 20:53:00,
2013-03-05 15:58:00,49.6,45.9,29.75,NNE,22,0.0,0.0,87,0.00,-RA,,0.00,WeatherDisplay:10.37,2013-03-05 20:58:00,
2013-03-05 16:03:00,49.3,45.6,29.75,North,0,3.5,3.5,87,0.00,-RA,,0.00,WeatherDisplay:10.37,2013-03-05 21:03:00,
2013-03-05 16:08:00,49.3,45.6,29.75,North,0,3.8,3.8,87,0.00,-RA,,0.00,WeatherDisplay:10.37,2013-03-05 21:08:00,
2013-03-05 16:13:00,49.3,45.6,29.74,North,0,0.0,0.0,87,0.00,-RA,,0.00,WeatherDisplay:10.37,2013-03-05 21:13:00,
2013-03-05 16:18:00,49.3,45.6,29.73,SSE,158,3.5,3.5,87,0.00,-RA,,0.00,WeatherDisplay:10.37,2013-03-05 21:18:00,
2013-03-05 16:23:00,49.6,46.2,29.72,SSE,158,5.8,5.8,88,0.00,-RA,,0.00,WeatherDisplay:10.37,2013-03-05 21:23:00,
2013-03-05 16:28:00,50.2,47.1,29.72,SSE,158,5.8,5.8,89,0.00,-RA,,0.00,WeatherDisplay:10.37,2013-03-05 21:28:00,
2013-03-05 16:33:00,50.4,47.2,29.71,SSE,158,3.5,3.5,89,0.00,-RA,,0.00,WeatherDisplay:10.37,2013-03-05 21:33:00,
2013-03-05 16:38:00,50.5,47.1,29.71,SSE,158,3.5,3.5,88,0.00,-RA,,0.00,WeatherDisplay:10.37,2013-03-05 21:38:00,
2013-03-05 16:43:00,50.5,47.1,29.70,SSE,158,3.5,3.5,88,0.00,-RA,,0.00,WeatherDisplay:10.37,2013-03-05 21:43:00,
2013-03-05 16:48:00,50.5,47.1,29.70,SSE,158,4.6,0.0,88,0.03,-RA,,0.03,WeatherDisplay:10.37,2013-03-05 21:48:00,
2013-03-05 16:53:00,50.4,46.9,29.70,SSW,202,3.5,3.5,88,0.03,-RA,,0.03,WeatherDisplay:10.37,2013-03-05 21:53:00,
2013-03-05 16:58:00,50.2,46.8,29.70,SW,225,3.5,3.5,88,0.03,-RA,,0.03,WeatherDisplay:10.37,2013-03-05 21:58:00,
2013-03-05 17:03:00,49.8,46.7,29.70,WSW,248,4.6,4.6,89,0.06,-RA,,0.06,WeatherDisplay:10.37,2013-03-05 22:03:00,
2013-03-05 17:08:00,49.6,46.5,29.70,SW,225,3.5,3.5,89,0.06,-RA,,0.06,WeatherDisplay:10.37,2013-03-05 22:08:00,
2013-03-05 17:13:00,49.5,46.4,29.69,SW,225,0.0,0.0,89,0.09,-RA,,0.09,WeatherDisplay:10.37,2013-03-05 22:13:00,
2013-03-05 17:19:00,49.3,46.2,29.69,West,270,2.3,0.0,89,0.09,-RA,,0.09,WeatherDisplay:10.37,2013-03-05 22:19:00,
2013-03-05 17:24:00,49.3,46.2,29.70,West,270,0.0,0.0,89,0.12,-RA,,0.12,WeatherDisplay:10.37,2013-03-05 22:24:00,
2013-03-05 17:29:00,49.1,46.0,29.70,West,270,0.0,0.0,89,0.15,-RA,,0.15,WeatherDisplay:10.37,2013-03-05 22:29:00,
2013-03-05 17:34:00,49.1,46.0,29.71,West,270,0.0,0.0,89,0.18,-RA,,0.18,WeatherDisplay:10.37,2013-03-05 22:34:00,
2013-03-05 17:39:00,48.9,45.8,29.72,South,180,0.0,0.0,89,0.21,-RA,,0.21,WeatherDisplay:10.37,2013-03-05 22:39:00,
2013-03-05 17:44:00,48.7,45.6,29.72,SSE,158,0.0,0.0,89,0.24,-RA,,0.24,WeatherDisplay:10.37,2013-03-05 22:44:00,
2013-03-05 17:49:00,48.7,45.9,29.71,SSE,158,0.0,0.0,90,0.24,-RA,,0.27,WeatherDisplay:10.37,2013-03-05 22:49:00,
2013-03-05 17:54:00,48.7,45.6,29.71,SSE,158,0.0,0.0,89,0.24,-RA,,0.27,WeatherDisplay:10.37,2013-03-05 22:54:00,
2013-03-05 17:59:00,48.7,45.6,29.71,SW,225,0.0,0.0,89,0.27,-RA,,0.30,WeatherDisplay:10.37,2013-03-05 22:59:00,
2013-03-05 18:04:00,48.7,45.6,29.72,NW,315,0.0,0.0,89,0.27, +RA,,0.33,WeatherDisplay:10.37,2013-03-05 23:04:00,
2013-03-05 18:09:00,48.6,45.5,29.72,NNW,338,0.0,0.0,89,0.27, +RA,,0.36,WeatherDisplay:10.37,2013-03-05 23:09:00,
2013-03-05 18:14:00,48.4,45.6,29.71,NNW,338,0.0,0.0,90,0.27, +RA,,0.36,WeatherDisplay:10.37,2013-03-05 23:14:00,
2013-03-05 18:19:00,48.4,45.6,29.69,NE,45,0.0,0.0,90,0.27, +RA,,0.36,WeatherDisplay:10.37,2013-03-05 23:19:00,
2013-03-05 18:24:00,48.2,45.4,29.68,NE,45,0.0,0.0,90,0.24, +RA,,0.36,WeatherDisplay:10.37,2013-03-05 23:24:00,
2013-03-05 18:29:00,48.2,45.4,29.68,NE,45,0.0,0.0,90,0.21, +RA,,0.36,WeatherDisplay:10.37,2013-03-05 23:29:00,
2013-03-05 18:35:00,48.0,45.5,29.68,North,0,0.0,0.0,91,0.18, +RA,,0.36,WeatherDisplay:10.37,2013-03-05 23:35:00,
2013-03-05 18:40:00,48.0,45.5,29.67,NW,315,0.0,0.0,91,0.15, +RA,,0.36,WeatherDisplay:10.37,2013-03-05 23:40:00,
2013-03-05 18:45:00,48.0,45.5,29.68,NNW,338,2.3,2.3,91,0.12, +RA,,0.36,WeatherDisplay:10.37,2013-03-05 23:45:00,
2013-03-05 18:50:00,47.8,45.3,29.68,North,0,0.0,0.0,91,0.09, +RA,,0.36,WeatherDisplay:10.37,2013-03-05 23:50:00,
2013-03-05 18:55:00,47.7,45.2,29.68,North,0,0.0,0.0,91,0.06, +RA,,0.36,WeatherDisplay:10.37,2013-03-05 23:55:00,
2013-03-05 19:00:00,47.5,44.7,29.68,North,0,0.0,0.0,90,0.06, +RA,,0.36,WeatherDisplay:10.37,2013-03-06 00:00:00,
2013-03-05 19:05:00,47.1,44.3,29.68,North,0,0.0,0.0,90,0.03, +RA,,0.36,WeatherDisplay:10.37,2013-03-06 00:05:00,
2013-03-05 19:10:00,47.1,44.6,29.69,NNE,22,3.5,3.5,91,0.00, +RA,,0.36,WeatherDisplay:10.37,2013-03-06 00:10:00,
2013-03-05 19:15:00,46.9,44.4,29.70,WSW,248,1.2,0.0,91,0.00, +RA,,0.36,WeatherDisplay:10.37,2013-03-06 00:15:00,
2013-03-05 19:20:00,47.1,44.6,29.69,NNW,338,0.0,0.0,91,0.00, +RA,,0.36,WeatherDisplay:10.37,2013-03-06 00:20:00,
2013-03-05 19:25:00,47.3,44.8,29.69,NNW,338,0.0,0.0,91,0.00, +RA,,0.36,WeatherDisplay:10.37,2013-03-06 00:25:00,
2013-03-05 19:30:00,47.3,44.8,29.68,NNW,338,0.0,0.0,91,0.00, +RA,,0.36,WeatherDisplay:10.37,2013-03-06 00:30:00,
2013-03-05 19:35:00,47.1,44.6,29.68,NNW,338,0.0,0.0,91,0.00, +RA,,0.36,WeatherDisplay:10.37,2013-03-06 00:35:00,
2013-03-05 19:40:00,46.9,44.4,29.68,NNW,338,0.0,0.0,91,0.00, +RA,,0.36,WeatherDisplay:10.37,2013-03-06 00:40:00,
2013-03-05 19:45:00,46.6,44.1,29.68,NNW,338,0.0,0.0,91,0.00, +RA,,0.36,WeatherDisplay:10.37,2013-03-06 00:45:00,
2013-03-05 19:50:00,46.2,43.7,29.68,NNW,338,0.0,0.0,91,0.00, +RA,,0.36,WeatherDisplay:10.37,2013-03-06 00:50:00,
2013-03-05 19:55:00,46.0,43.6,29.68,NNW,338,0.0,0.0,91,0.00, +RA,,0.36,WeatherDisplay:10.37,2013-03-06 00:55:00,
2013-03-05 20:01:00,45.7,42.9,29.68,West,270,3.5,3.5,90,0.00, +RA,,0.36,WeatherDisplay:10.37,2013-03-06 01:01:00,
2013-03-05 20:06:00,45.7,43.2,29.68,West,270,0.0,0.1,91,0.00,BKN,,0.36,WeatherDisplay:10.37,2013-03-06 01:06:00,
2013-03-05 20:11:00,46.0,43.6,29.68,West,270,0.0,0.0,91,0.00,BKN,,0.36,WeatherDisplay:10.37,2013-03-06 01:11:00,
2013-03-05 20:16:00,46.0,43.6,29.67,SW,225,3.5,3.5,91,0.00,BKN,,0.36,WeatherDisplay:10.37,2013-03-06 01:16:00,
2013-03-05 20:21:00,46.2,43.7,29.67,West,270,0.0,0.0,91,0.00,BKN,,0.36,WeatherDisplay:10.37,2013-03-06 01:21:00,
2013-03-05 20:26:00,46.2,43.7,29.67,SW,225,3.8,3.8,91,0.00,BKN,,0.36,WeatherDisplay:10.37,2013-03-06 01:26:00,
2013-03-05 20:31:00,46.2,43.7,29.67,SE,135,3.5,3.5,91,0.00,BKN,,0.36,WeatherDisplay:10.37,2013-03-06 01:31:00,
2013-03-05 20:36:00,46.2,43.4,29.67,SW,225,4.6,4.6,90,0.00,BKN,,0.36,WeatherDisplay:10.37,2013-03-06 01:36:00,
2013-03-05 20:41:00,46.2,43.4,29.67,West,270,0.0,0.0,90,0.00,BKN,,0.36,WeatherDisplay:10.37,2013-03-06 01:41:00,
2013-03-05 20:46:00,46.2,43.2,29.67,SW,225,5.8,5.8,89,0.00,BKN,,0.36,WeatherDisplay:10.37,2013-03-06 01:46:00,
2013-03-05 20:51:00,46.2,42.9,29.66,West,270,9.2,9.2,88,0.00,BKN,,0.36,WeatherDisplay:10.37,2013-03-06 01:51:00,
2013-03-05 20:56:00,46.4,43.0,29.67,NW,315,9.2,9.2,88,0.00,BKN,,0.36,WeatherDisplay:10.37,2013-03-06 01:56:00,
2013-03-05 21:01:00,46.2,42.6,29.66,WNW,292,6.0,6.0,87,0.00,BKN,,0.36,WeatherDisplay:10.37,2013-03-06 02:01:00,
2013-03-05 21:06:00,46.2,42.6,29.67,WSW,248,6.9,6.9,87,0.00,BKN,,0.36,WeatherDisplay:10.37,2013-03-06 02:06:00,
2013-03-05 21:12:00,46.0,42.4,29.68,NW,315,2.9,2.9,87,0.00,BKN,,0.36,WeatherDisplay:10.37,2013-03-06 02:12:00,
2013-03-05 21:17:00,45.7,42.0,29.68,WNW,292,6.9,6.9,87,0.00,BKN,,0.36,WeatherDisplay:10.37,2013-03-06 02:17:00,
2013-03-05 21:22:00,45.7,42.0,29.68,West,270,2.7,2.7,87,0.00,BKN,,0.36,WeatherDisplay:10.37,2013-03-06 02:22:00,
2013-03-05 21:27:00,45.7,41.7,29.68,WSW,248,0.0,0.0,86,0.00,BKN,,0.36,WeatherDisplay:10.37,2013-03-06 02:27:00,
2013-03-05 21:32:00,45.5,41.3,29.69,SW,225,3.5,3.5,85,0.00,BKN,,0.36,WeatherDisplay:10.37,2013-03-06 02:32:00,
2013-03-05 21:37:00,45.1,40.6,29.69,WSW,248,6.9,6.9,84,0.00,BKN,,0.36,WeatherDisplay:10.37,2013-03-06 02:37:00,
2013-03-05 21:42:00,44.8,39.6,29.69,WNW,292,0.0,0.0,82,0.00,BKN,,0.36,WeatherDisplay:10.37,2013-03-06 02:42:00,
2013-03-05 21:47:00,44.4,39.3,29.69,West,270,4.7,4.7,82,0.00,BKN,,0.36,WeatherDisplay:10.37,2013-03-06 02:47:00,
2013-03-05 21:52:00,44.1,38.9,29.69,WSW,248,2.3,2.3,82,0.00,BKN,,0.36,WeatherDisplay:10.37,2013-03-06 02:52:00,
2013-03-05 21:57:00,43.7,38.6,29.69,West,270,4.6,4.6,82,0.00,BKN,,0.36,WeatherDisplay:10.37,2013-03-06 02:57:00,
2013-03-05 22:02:00,43.5,37.8,29.70,NNW,338,8.1,8.1,80,0.00,CLR,,0.36,WeatherDisplay:10.37,2013-03-06 03:02:00,
2013-03-05 22:07:00,43.3,37.6,29.70,WSW,248,2.3,0.0,80,0.00,CLR,,0.36,WeatherDisplay:10.37,2013-03-06 03:07:00,
2013-03-05 22:12:00,43.0,36.9,29.70,NW,315,0.0,0.5,79,0.00,CLR,,0.36,WeatherDisplay:10.37,2013-03-06 03:12:00,
2013-03-05 22:17:00,42.6,36.2,29.70,NW,315,3.5,0.0,78,0.00,CLR,,0.36,WeatherDisplay:10.37,2013-03-06 03:17:00,
2013-03-05 22:22:00,42.6,36.2,29.70,West,270,4.5,4.5,78,0.00,CLR,,0.36,WeatherDisplay:10.37,2013-03-06 03:22:00,
2013-03-05 22:27:00,42.4,35.7,29.70,WNW,292,2.3,0.0,77,0.00,CLR,,0.36,WeatherDisplay:10.37,2013-03-06 03:27:00,
2013-03-05 22:33:00,42.1,35.4,29.70,WSW,248,4.6,4.6,77,0.00,CLR,,0.36,WeatherDisplay:10.37,2013-03-06 03:33:00,
2013-03-05 22:38:00,41.7,34.7,29.70,SW,225,5.8,5.8,76,0.00,CLR,,0.36,WeatherDisplay:10.37,2013-03-06 03:38:00,
2013-03-05 22:43:00,41.5,34.5,29.70,WSW,248,5.8,5.8,76,0.00,CLR,,0.36,WeatherDisplay:10.37,2013-03-06 03:43:00,
2013-03-05 22:48:00,41.0,34.3,29.70,WSW,248,4.6,4.6,77,0.00,CLR,,0.36,WeatherDisplay:10.37,2013-03-06 03:48:00,
2013-03-05 22:53:00,40.8,34.2,29.69,West,270,4.6,4.6,77,0.00,CLR,,0.36,WeatherDisplay:10.37,2013-03-06 03:53:00,
2013-03-05 22:58:00,40.6,34.0,29.69,WSW,248,6.9,6.9,77,0.00,CLR,,0.36,WeatherDisplay:10.37,2013-03-06 03:58:00,
2013-03-05 23:03:00,40.3,33.6,29.69,NW,315,8.1,8.1,77,0.00,-RA,,0.36,WeatherDisplay:10.37,2013-03-06 04:03:00,
2013-03-05 23:08:00,39.9,33.3,29.69,West,270,6.9,6.9,77,0.00,-RA,,0.36,WeatherDisplay:10.37,2013-03-06 04:08:00,
2013-03-05 23:13:00,39.9,33.3,29.69,WSW,248,5.8,5.8,77,0.00,-RA,,0.36,WeatherDisplay:10.37,2013-03-06 04:13:00,
2013-03-05 23:18:00,39.6,32.9,29.68,WSW,248,9.2,9.2,77,0.00,-RA,,0.36,WeatherDisplay:10.37,2013-03-06 04:18:00,
2013-03-05 23:23:00,39.4,32.8,29.69,WNW,292,11.5,11.5,77,0.00,-RA,,0.36,WeatherDisplay:10.37,2013-03-06 04:23:00,
2013-03-05 23:28:00,39.0,32.1,29.69,WSW,248,4.6,4.6,76,0.00,-RA,,0.36,WeatherDisplay:10.37,2013-03-06 04:28:00,
2013-03-05 23:33:00,38.8,32.2,29.69,West,270,12.7,12.7,77,0.00,-RA,,0.36,WeatherDisplay:10.37,2013-03-06 04:33:00,
2013-03-05 23:38:00,38.5,31.9,29.69,WNW,292,7.2,7.2,77,0.00,-RA,,0.36,WeatherDisplay:10.37,2013-03-06 04:38:00,
2013-03-05 23:43:00,38.3,31.7,29.69,WSW,248,6.9,6.9,77,0.00,-RA,,0.36,WeatherDisplay:10.37,2013-03-06 04:43:00,
2013-03-05 23:49:00,38.1,31.5,29.69,WNW,292,8.1,8.1,77,0.00,-RA,,0.36,WeatherDisplay:10.37,2013-03-06 04:49:00,
2013-03-05 23:54:00,37.9,31.4,29.69,WNW,292,3.5,3.5,77,0.00,-RA,,0.36,WeatherDisplay:10.37,2013-03-06 04:54:00,
2013-03-05 23:59:00,37.9,31.4,29.70,North,0,0.0,0.2,77,0.00,-RA,,0.36,WeatherDisplay:10.37,2013-03-06 04:59:00,